Weather at Jack Mc Namara Field Airport

Public forecast

Using degrees Fahrenheit for public forecast. Weather courtesy of forecast.io.

Current aviation weather report (METAR) for Jack Mc Namara Field Airport

Retrieved 2020/11/30 20:35 UTC (0 seconds ago):

KCEC 302035Z AUTO 32004KT 2SM BR OVC009 10/09 A3037 RMK AO2 T01000089

Aviation forecast (TAF) for Jack Mc Namara Field Airport

Retrieved 2020/11/30 18:39 UTC (1 hour ago):

TAF KCEC 301736Z 3018/0118 04004KT 1 1/2SM -RA BR SCT006 OVC011 FM302300 36007KT P6SM BKN050 FM011200 04005KT 6SM HZ BKN100 FM011700 02006KT 6SM HZ BKN120